createdAt,value
2019-02-04T00:01:11.631Z,91.90
2019-02-04T00:03:37.669Z,91.80
2019-02-04T00:06:03.695Z,91.90
2019-02-04T00:08:29.803Z,92.10
2019-02-04T00:10:55.844Z,92.30
2019-02-04T00:13:21.876Z,92.40
2019-02-04T00:15:47.897Z,92.30
2019-02-04T00:18:13.927Z,92.60
2019-02-04T00:20:39.951Z,92.50
2019-02-04T00:23:06.031Z,93.00
2019-02-04T00:25:32.507Z,93.00
2019-02-04T00:27:58.575Z,92.70
2019-02-04T00:30:25.289Z,92.60
2019-02-04T00:32:51.319Z,92.50
2019-02-04T00:35:17.329Z,92.40
2019-02-04T00:37:43.339Z,92.50
2019-02-04T00:40:19.175Z,92.50
2019-02-04T00:42:45.707Z,92.60
2019-02-04T00:45:11.724Z,92.50
2019-02-04T00:47:37.859Z,92.30
2019-02-04T00:50:06.075Z,92.60
2019-02-04T00:52:32.099Z,92.70
2019-02-04T00:54:58.140Z,92.80
2019-02-04T00:57:24.171Z,92.70
2019-02-04T00:59:50.179Z,92.80
2019-02-04T01:02:16.615Z,93.00
2019-02-04T01:04:42.651Z,93.10
2019-02-04T01:07:08.867Z,93.20
2019-02-04T01:09:34.875Z,93.30
2019-02-04T01:12:01.143Z,93.10
2019-02-04T01:14:27.183Z,92.90
2019-02-04T01:17:03.034Z,93.30
2019-02-04T01:19:21.111Z,92.80
2019-02-04T01:21:47.143Z,92.90
2019-02-04T01:24:13.157Z,92.90
2019-02-04T01:26:39.192Z,93.00
2019-02-04T01:29:05.231Z,93.20
2019-02-04T01:31:31.268Z,93.30
2019-02-04T01:33:57.279Z,93.20
2019-02-04T01:36:23.308Z,93.70
2019-02-04T01:38:49.833Z,93.60
2019-02-04T01:41:15.880Z,93.20
2019-02-04T01:43:41.911Z,93.20
2019-02-04T01:46:07.920Z,93.10
2019-02-04T01:48:33.951Z,93.00
2019-02-04T01:50:59.959Z,93.00
2019-02-04T01:53:26.001Z,93.20
2019-02-04T01:55:52.013Z,93.40
2019-02-04T01:58:18.325Z,93.50
2019-02-04T02:00:44.377Z,93.70
2019-02-04T02:03:10.428Z,93.90
2019-02-04T02:05:36.460Z,93.60
2019-02-04T02:08:02.871Z,93.80
2019-02-04T02:10:28.911Z,93.80
2019-02-04T02:12:54.931Z,93.70
2019-02-04T02:15:21.043Z,93.60
2019-02-04T02:17:47.596Z,93.50
2019-02-04T02:20:16.907Z,93.30
2019-02-04T02:22:42.920Z,93.10
2019-02-04T02:25:08.951Z,93.20
2019-02-04T02:27:35.056Z,93.40
2019-02-04T02:30:01.120Z,93.50
2019-02-04T02:32:27.150Z,93.40
2019-02-04T02:34:53.555Z,93.30
2019-02-04T02:37:19.590Z,93.30
2019-02-04T02:39:45.626Z,93.50
2019-02-04T02:42:11.675Z,93.50
2019-02-04T02:44:37.696Z,93.30
2019-02-04T02:47:03.725Z,93.30
2019-02-04T02:49:30.176Z,93.20
2019-02-04T02:51:56.220Z,93.30
2019-02-04T02:54:22.232Z,93.40
2019-02-04T02:56:48.276Z,93.20
2019-02-04T02:59:14.298Z,93.20
2019-02-04T03:01:40.324Z,93.40
2019-02-04T03:04:06.343Z,93.40
2019-02-04T03:06:32.424Z,93.40
2019-02-04T03:08:58.464Z,93.50
2019-02-04T03:11:24.480Z,93.50
2019-02-04T03:13:50.887Z,93.40
2019-02-04T03:16:16.985Z,93.50
2019-02-04T03:18:43.020Z,93.60
2019-02-04T03:21:09.055Z,93.50
2019-02-04T03:23:35.091Z,93.60
2019-02-04T03:26:01.521Z,93.50
2019-02-04T03:28:27.571Z,93.60
2019-02-04T03:30:53.612Z,93.70
2019-02-04T03:33:20.024Z,93.70
2019-02-04T03:35:46.038Z,93.80
2019-02-04T03:38:12.072Z,93.90
2019-02-04T03:40:38.106Z,94.10
2019-02-04T03:43:04.132Z,94.00
2019-02-04T03:45:30.229Z,93.90
2019-02-04T03:48:04.579Z,94.30
2019-02-04T03:50:24.191Z,94.50
2019-02-04T03:52:50.607Z,94.80
2019-02-04T03:55:16.648Z,95.10
2019-02-04T03:57:42.660Z,95.00
2019-02-04T04:00:20.487Z,94.90
2019-02-04T04:02:46.523Z,95.00
2019-02-04T04:05:12.535Z,95.20
2019-02-04T04:07:38.972Z,94.60
2019-02-04T04:10:06.826Z,94.50
2019-02-04T04:12:32.860Z,94.40
2019-02-04T04:14:58.872Z,94.10
2019-02-04T04:17:24.903Z,94.20
2019-02-04T04:19:50.927Z,94.10
2019-02-04T04:22:16.960Z,94.10
2019-02-04T04:24:42.996Z,94.00
2019-02-04T04:27:09.420Z,93.90
2019-02-04T04:29:35.480Z,93.80
2019-02-04T04:32:01.499Z,94.00
2019-02-04T04:34:28.433Z,94.20
2019-02-04T04:36:54.449Z,94.20
2019-02-04T04:39:40.360Z,94.30
2019-02-04T04:42:06.676Z,93.70
2019-02-04T04:44:32.720Z,93.50
2019-02-04T04:46:58.743Z,93.50
2019-02-04T04:49:24.756Z,93.40
2019-02-04T04:51:50.796Z,93.20
2019-02-04T04:54:16.808Z,93.40
2019-02-04T04:56:42.826Z,93.40
2019-02-04T04:59:08.875Z,93.30
2019-02-04T05:01:35.007Z,93.20
2019-02-04T05:04:01.043Z,93.40
2019-02-04T05:06:27.068Z,93.60
2019-02-04T05:08:53.144Z,93.70
2019-02-04T05:11:19.159Z,93.60
2019-02-04T05:13:45.196Z,94.00
2019-02-04T05:16:11.207Z,93.70
2019-02-04T05:18:38.410Z,93.50
2019-02-04T05:21:04.671Z,93.60
2019-02-04T05:23:30.863Z,93.60
2019-02-04T05:25:59.792Z,93.60
2019-02-04T05:28:25.804Z,93.30
2019-02-04T05:30:51.839Z,93.40
2019-02-04T05:33:17.882Z,93.50
2019-02-04T05:35:43.892Z,93.40
2019-02-04T05:38:10.233Z,93.40
2019-02-04T05:40:56.136Z,93.40
2019-02-04T05:43:22.200Z,93.60
2019-02-04T05:45:48.217Z,93.50
2019-02-04T05:48:14.251Z,93.60
2019-02-04T05:50:47.363Z,93.80
2019-02-04T05:53:13.413Z,93.80
2019-02-04T05:55:39.441Z,94.00
2019-02-04T05:58:05.506Z,94.00
2019-02-04T06:00:36.632Z,93.90
2019-02-04T06:03:02.696Z,93.60
2019-02-04T06:05:28.744Z,93.60
2019-02-04T06:07:55.284Z,93.50
2019-02-04T06:10:22.802Z,93.10
2019-02-04T06:12:48.851Z,93.00
2019-02-04T06:15:15.568Z,93.50
2019-02-04T06:17:41.612Z,93.30
2019-02-04T06:20:11.447Z,93.40
2019-02-04T06:22:37.496Z,93.20
2019-02-04T06:25:25.324Z,93.00
2019-02-04T06:27:51.420Z,93.00
2019-02-04T06:30:17.483Z,92.90
2019-02-04T06:32:43.523Z,92.90
2019-02-04T06:35:10.342Z,92.70
2019-02-04T06:37:36.413Z,92.60
2019-02-04T06:40:06.148Z,92.60
2019-02-04T06:42:32.162Z,92.70
2019-02-04T06:44:58.192Z,92.70
2019-02-04T06:47:24.204Z,92.70
2019-02-04T06:49:50.267Z,92.80
2019-02-04T06:52:16.304Z,92.70
2019-02-04T06:54:42.357Z,92.90
2019-02-04T06:57:08.378Z,92.90
2019-02-04T06:59:34.712Z,93.00
2019-02-04T07:02:00.732Z,92.60
2019-02-04T07:04:26.773Z,92.50
2019-02-04T07:06:52.787Z,92.50
2019-02-04T07:09:18.799Z,92.40
2019-02-04T07:11:44.839Z,92.40
2019-02-04T07:14:10.856Z,92.30
2019-02-04T07:16:36.912Z,92.30
2019-02-04T07:19:03.327Z,92.30
2019-02-04T07:21:29.371Z,92.20
2019-02-04T07:23:55.379Z,92.30
2019-02-04T07:26:21.411Z,92.10
2019-02-04T07:28:47.427Z,92.00
2019-02-04T07:31:13.463Z,92.00
2019-02-04T07:33:39.503Z,92.10
2019-02-04T07:36:05.548Z,91.90
2019-02-04T07:38:31.562Z,92.00
2019-02-04T07:40:57.599Z,92.00
2019-02-04T07:43:23.615Z,92.20
2019-02-04T07:45:49.660Z,92.70
2019-02-04T07:48:15.718Z,92.90
2019-02-04T07:50:41.716Z,93.60
2019-02-04T07:53:07.756Z,93.90
2019-02-04T07:55:33.763Z,93.70
2019-02-04T07:57:59.812Z,94.40
2019-02-04T08:00:31.706Z,94.30
2019-02-04T08:02:57.952Z,94.10
2019-02-04T08:05:24.076Z,93.50
2019-02-04T08:07:50.106Z,93.10
2019-02-04T08:10:16.139Z,92.70
2019-02-04T08:12:42.256Z,92.50
2019-02-04T08:15:17.553Z,92.40
2019-02-04T08:17:43.573Z,92.00
2019-02-04T08:20:09.704Z,91.80
2019-02-04T08:22:35.720Z,91.50
2019-02-04T08:25:02.051Z,91.00
2019-02-04T08:27:28.095Z,90.70
2019-02-04T08:29:54.219Z,90.50
2019-02-04T08:32:20.303Z,90.60
2019-02-04T08:34:46.716Z,90.40
2019-02-04T08:37:12.745Z,90.10
2019-02-04T08:39:38.881Z,90.80
2019-02-04T08:42:05.005Z,93.20
2019-02-04T08:44:31.059Z,92.40
2019-02-04T08:46:57.107Z,90.80
2019-02-04T08:49:23.120Z,91.30
2019-02-04T08:51:49.143Z,90.80
2019-02-04T08:54:15.263Z,91.50
2019-02-04T08:56:43.102Z,91.20
2019-02-04T08:59:09.312Z,91.70
2019-02-04T09:01:35.341Z,91.40
2019-02-04T09:04:01.391Z,90.70
2019-02-04T09:06:27.412Z,90.20
2019-02-04T09:08:53.428Z,90.00
2019-02-04T09:11:19.474Z,89.60
2019-02-04T09:13:45.484Z,88.50
2019-02-04T09:16:11.531Z,87.60
2019-02-04T09:18:44.850Z,86.60
2019-02-04T09:21:05.801Z,86.40
2019-02-04T09:23:31.917Z,86.00
2019-02-04T09:25:57.950Z,85.90
2019-02-04T09:28:23.968Z,85.30
2019-02-04T09:30:50.046Z,85.00
2019-02-04T09:33:16.159Z,84.70
2019-02-04T09:35:42.175Z,83.90
2019-02-04T09:38:08.512Z,82.60
2019-02-04T09:40:39.891Z,82.50
2019-02-04T09:43:06.226Z,82.30
2019-02-04T09:45:32.267Z,82.30
2019-02-04T09:47:58.283Z,81.80
2019-02-04T09:50:50.756Z,82.10
2019-02-04T09:53:16.773Z,81.60
2019-02-04T09:55:42.783Z,81.00
2019-02-04T09:58:08.819Z,80.90
2019-02-04T10:00:35.341Z,79.60
2019-02-04T10:03:01.392Z,79.40
2019-02-04T10:05:27.402Z,79.60
2019-02-04T10:07:53.469Z,79.50
2019-02-04T10:10:22.185Z,79.30
2019-02-04T10:12:48.221Z,79.50
2019-02-04T10:15:16.838Z,80.10
2019-02-04T10:17:43.013Z,80.30
2019-02-04T10:20:12.354Z,79.30
2019-02-04T10:22:38.431Z,78.10
2019-02-04T10:25:07.503Z,78.00
2019-02-04T10:27:35.515Z,78.10
2019-02-04T10:30:01.539Z,77.20
2019-02-04T10:32:27.681Z,75.90
2019-02-04T10:34:53.793Z,76.20
2019-02-04T10:37:19.839Z,75.50
2019-02-04T10:39:45.922Z,75.70
2019-02-04T10:42:11.947Z,78.40
2019-02-04T10:44:38.387Z,76.00
2019-02-04T10:47:04.474Z,75.10
2019-02-04T10:49:30.612Z,75.80
2019-02-04T10:51:56.651Z,74.60
2019-02-04T10:54:22.668Z,75.60
2019-02-04T10:56:48.782Z,75.80
2019-02-04T10:59:14.832Z,76.60
2019-02-04T11:01:40.876Z,76.20
2019-02-04T11:04:07.032Z,75.90
2019-02-04T11:06:33.156Z,77.00
2019-02-04T11:08:59.174Z,77.10
2019-02-04T11:11:25.307Z,77.50
2019-02-04T11:13:51.454Z,76.60
2019-02-04T11:16:17.735Z,75.60
2019-02-04T11:18:43.926Z,75.90
2019-02-04T11:21:10.023Z,75.80
2019-02-04T11:23:36.184Z,74.50
2019-02-04T11:26:02.421Z,74.40
2019-02-04T11:28:28.522Z,72.70
2019-02-04T11:30:56.822Z,72.70
2019-02-04T11:33:22.950Z,72.20
2019-02-04T11:35:49.075Z,71.70
2019-02-04T11:38:15.250Z,72.40
2019-02-04T11:40:41.350Z,73.00
2019-02-04T11:43:08.086Z,71.70
2019-02-04T11:45:34.255Z,70.90
2019-02-04T11:48:00.677Z,70.80
2019-02-04T11:50:26.833Z,71.60
2019-02-04T11:52:52.848Z,71.10
2019-02-04T11:55:18.979Z,67.80
2019-02-04T11:57:45.006Z,67.50
2019-02-04T12:00:14.752Z,68.60
2019-02-04T12:02:41.204Z,68.90
2019-02-04T12:05:10.920Z,68.90
2019-02-04T12:07:36.932Z,67.00
2019-02-04T12:10:29.404Z,67.50
2019-02-04T12:12:55.821Z,65.80
2019-02-04T12:15:21.888Z,65.40
2019-02-04T12:17:48.012Z,64.90
2019-02-04T12:20:15.958Z,64.30
2019-02-04T12:22:41.988Z,63.90
2019-02-04T12:25:10.428Z,63.30
2019-02-04T12:27:36.439Z,64.30
2019-02-04T12:30:09.063Z,67.50
2019-02-04T12:32:35.075Z,69.30
2019-02-04T12:35:01.108Z,67.30
2019-02-04T12:37:27.175Z,67.30
2019-02-04T12:39:53.192Z,66.30
2019-02-04T12:42:19.227Z,63.30
2019-02-04T12:44:45.304Z,63.50
2019-02-04T12:47:12.057Z,63.70
2019-02-04T12:49:38.067Z,62.20
2019-02-04T12:52:04.104Z,66.90
2019-02-04T12:54:30.121Z,62.10
2019-02-04T12:56:56.149Z,63.70
2019-02-04T12:59:22.175Z,62.90
2019-02-04T13:01:48.300Z,62.20
2019-02-04T13:04:14.323Z,58.80
2019-02-04T13:06:40.336Z,58.70
2019-02-04T13:09:06.661Z,58.40
2019-02-04T13:11:32.676Z,58.70
2019-02-04T13:13:58.711Z,59.30
2019-02-04T13:16:24.738Z,60.00
2019-02-04T13:18:50.774Z,59.50
2019-02-04T13:21:16.783Z,58.30
2019-02-04T13:23:42.816Z,57.20
2019-02-04T13:26:08.827Z,57.30
2019-02-04T13:28:34.847Z,55.70
2019-02-04T13:31:01.312Z,55.60
2019-02-04T13:33:27.367Z,56.20
2019-02-04T13:35:53.392Z,57.60
2019-02-04T13:38:19.406Z,57.90
2019-02-04T13:40:45.431Z,57.80
2019-02-04T13:43:11.547Z,56.40
2019-02-04T13:45:37.595Z,55.90
2019-02-04T13:48:03.628Z,55.40
2019-02-04T13:50:30.049Z,54.00
2019-02-04T13:52:56.190Z,52.90
2019-02-04T13:55:36.520Z,52.50
2019-02-04T13:58:02.961Z,53.20
2019-02-04T14:00:28.992Z,53.90
2019-02-04T14:03:17.647Z,54.10
2019-02-04T14:05:42.824Z,53.90
2019-02-04T14:08:08.879Z,53.30
2019-02-04T14:10:37.516Z,52.70
2019-02-04T14:13:04.227Z,52.70
2019-02-04T14:15:30.301Z,52.10
2019-02-04T14:17:56.712Z,52.40
2019-02-04T14:20:44.537Z,52.80
2019-02-04T14:23:10.787Z,50.90
2019-02-04T14:25:36.823Z,50.60
2019-02-04T14:28:03.718Z,50.60
2019-02-04T14:30:33.283Z,51.30
2019-02-04T14:32:59.331Z,51.60
2019-02-04T14:35:25.366Z,51.10
2019-02-04T14:37:51.379Z,50.20
2019-02-04T14:40:18.883Z,50.30
2019-02-04T14:42:48.727Z,50.10
2019-02-04T14:45:21.603Z,50.30
2019-02-04T14:48:02.809Z,50.90
2019-02-04T14:50:41.220Z,50.90
2019-02-04T14:53:23.036Z,52.40
2019-02-04T14:56:01.896Z,51.10
2019-02-04T14:58:37.934Z,51.80
2019-02-04T15:01:07.791Z,52.50
2019-02-04T15:03:38.012Z,53.40
2019-02-04T15:06:10.992Z,52.40
2019-02-04T15:08:46.853Z,52.30
2019-02-04T15:11:22.984Z,53.20
2019-02-04T15:14:02.368Z,53.00
2019-02-04T15:16:35.483Z,53.60
2019-02-04T15:19:11.581Z,52.50
2019-02-04T15:21:47.808Z,53.30
2019-02-04T15:24:20.828Z,52.20
2019-02-04T15:27:07.559Z,52.30
2019-02-04T15:29:46.162Z,52.60
2019-02-04T15:32:29.472Z,52.50
2019-02-04T15:35:05.616Z,52.70
2019-02-04T15:37:47.800Z,53.10
2019-02-04T15:40:23.480Z,54.30
2019-02-04T15:42:59.384Z,53.50
2019-02-04T15:45:54.236Z,55.40
2019-02-04T15:48:23.395Z,54.70
2019-02-04T15:50:53.228Z,55.20
2019-02-04T15:53:19.263Z,55.50
2019-02-04T15:55:45.395Z,56.30
2019-02-04T15:58:11.433Z,56.30
2019-02-04T16:00:38.295Z,56.70
2019-02-04T16:03:04.637Z,57.50
2019-02-04T16:05:30.671Z,57.90
2019-02-04T16:07:56.787Z,57.10
2019-02-04T16:10:22.816Z,58.20
2019-02-04T16:12:48.852Z,58.20
2019-02-04T16:15:15.184Z,58.90
2019-02-04T16:17:41.218Z,59.50
2019-02-04T16:20:13.363Z,60.40
2019-02-04T16:22:39.381Z,60.20
2019-02-04T16:25:08.423Z,61.10
2019-02-04T16:27:34.459Z,60.80
2019-02-04T16:30:00.556Z,61.80
2019-02-04T16:32:26.644Z,62.60
2019-02-04T16:34:52.677Z,62.40
2019-02-04T16:37:18.707Z,63.30
2019-02-04T16:39:45.120Z,63.50
2019-02-04T16:42:11.144Z,63.80
2019-02-04T16:44:37.151Z,63.70
2019-02-04T16:47:03.197Z,62.90
2019-02-04T16:49:29.223Z,65.30
2019-02-04T16:51:55.247Z,69.00
2019-02-04T16:54:21.293Z,67.30
2019-02-04T16:56:47.360Z,66.50
2019-02-04T16:59:13.380Z,66.10
2019-02-04T17:01:39.424Z,65.40
2019-02-04T17:04:05.511Z,65.90
2019-02-04T17:06:34.524Z,65.50
2019-02-04T17:09:02.323Z,65.60
2019-02-04T17:11:28.535Z,66.40
2019-02-04T17:13:54.608Z,66.60
2019-02-04T17:16:20.643Z,65.30
2019-02-04T17:18:46.748Z,66.20
2019-02-04T17:21:12.791Z,66.30
2019-02-04T17:23:38.829Z,66.50
2019-02-04T17:26:04.847Z,66.90
2019-02-04T17:28:30.947Z,68.90
2019-02-04T17:30:57.008Z,68.10
2019-02-04T17:33:23.039Z,68.40
2019-02-04T17:35:49.051Z,68.90
2019-02-04T17:38:15.119Z,68.90
2019-02-04T17:40:41.455Z,70.00
2019-02-04T17:43:07.467Z,69.70
2019-02-04T17:45:33.499Z,70.10
2019-02-04T17:47:59.550Z,70.40
2019-02-04T17:50:25.583Z,71.30
2019-02-04T17:52:51.630Z,71.30
2019-02-04T17:55:27.872Z,71.40
2019-02-04T17:57:54.091Z,71.50
2019-02-04T18:00:24.866Z,72.30
2019-02-04T18:02:51.016Z,73.60
2019-02-04T18:05:17.151Z,73.50
2019-02-04T18:07:43.271Z,73.00
2019-02-04T18:10:12.891Z,72.90
2019-02-04T18:12:39.037Z,74.10
2019-02-04T18:15:09.089Z,74.50
2019-02-04T18:17:35.203Z,75.80
2019-02-04T18:20:01.223Z,74.50
2019-02-04T18:22:27.298Z,75.40
2019-02-04T18:24:53.400Z,75.40
2019-02-04T18:27:19.412Z,75.40
2019-02-04T18:29:45.458Z,75.60
2019-02-04T18:32:12.012Z,74.50
2019-02-04T18:34:38.027Z,74.20
2019-02-04T18:37:04.043Z,75.30
2019-02-04T18:39:30.071Z,76.60
2019-02-04T18:41:56.158Z,76.50
2019-02-04T18:44:22.195Z,76.20
2019-02-04T18:46:48.535Z,75.20
2019-02-04T18:49:14.595Z,75.10
2019-02-04T18:51:40.612Z,76.80
2019-02-04T18:54:06.647Z,78.10
2019-02-04T18:56:32.685Z,77.60
2019-02-04T18:58:58.700Z,76.90
2019-02-04T19:01:24.768Z,77.30
2019-02-04T19:04:06.796Z,77.60
2019-02-04T19:06:32.868Z,77.90
2019-02-04T19:08:58.879Z,78.30
2019-02-04T19:11:24.891Z,78.20
2019-02-04T19:13:50.931Z,76.80
2019-02-04T19:16:36.821Z,77.50
2019-02-04T19:19:03.270Z,77.70
2019-02-04T19:21:29.291Z,78.90
2019-02-04T19:23:55.372Z,79.30
2019-02-04T19:26:21.383Z,80.50
2019-02-04T19:28:47.415Z,79.10
2019-02-04T19:31:13.680Z,79.80
2019-02-04T19:33:39.815Z,79.20
2019-02-04T19:36:08.549Z,79.40
2019-02-04T19:38:34.699Z,79.00
2019-02-04T19:41:00.720Z,78.80
2019-02-04T19:43:27.776Z,78.50
2019-02-04T19:45:53.827Z,79.10
2019-02-04T19:48:19.932Z,79.20
2019-02-04T19:50:47.077Z,79.40
2019-02-04T19:53:14.097Z,78.60
2019-02-04T19:55:40.144Z,78.80
2019-02-04T19:58:06.676Z,78.60
2019-02-04T20:00:32.708Z,78.60
2019-02-04T20:02:58.755Z,79.20
2019-02-04T20:05:26.412Z,79.50
2019-02-04T20:07:52.449Z,79.20
2019-02-04T20:10:19.603Z,79.40
2019-02-04T20:12:45.639Z,78.60
2019-02-04T20:15:24.492Z,79.20
2019-02-04T20:17:50.535Z,78.90
2019-02-04T20:20:16.711Z,82.90
2019-02-04T20:22:42.751Z,82.60
2019-02-04T20:25:15.604Z,82.50
2019-02-04T20:27:41.619Z,78.20
2019-02-04T20:30:19.357Z,78.30
2019-02-04T20:32:45.444Z,79.10
2019-02-04T20:35:11.487Z,80.40
2019-02-04T20:37:37.644Z,80.20
2019-02-04T20:40:07.461Z,79.90
2019-02-04T20:42:33.552Z,80.30
2019-02-04T20:44:59.571Z,79.50
2019-02-04T20:47:25.607Z,79.60
2019-02-04T20:49:52.148Z,80.40
2019-02-04T20:52:18.270Z,80.40
2019-02-04T20:54:45.302Z,80.50
2019-02-04T20:57:11.556Z,80.40
2019-02-04T20:59:37.598Z,79.30
2019-02-04T21:02:04.689Z,79.10
2019-02-04T21:04:30.951Z,79.10
2019-02-04T21:06:56.991Z,79.90
2019-02-04T21:09:23.413Z,81.10
2019-02-04T21:11:49.451Z,80.50
2019-02-04T21:14:15.461Z,80.50
2019-02-04T21:16:41.472Z,80.90
2019-02-04T21:19:07.609Z,80.90
2019-02-04T21:21:33.691Z,81.00
2019-02-04T21:23:59.728Z,81.10
2019-02-04T21:26:25.735Z,81.10
2019-02-04T21:28:51.863Z,81.40
2019-02-04T21:31:18.119Z,81.20
2019-02-04T21:33:44.131Z,81.20
2019-02-04T21:36:10.168Z,80.80
2019-02-04T21:38:36.188Z,81.00
2019-02-04T21:41:02.385Z,81.50
2019-02-04T21:43:28.576Z,81.20
2019-02-04T21:45:54.612Z,81.10
2019-02-04T21:48:20.632Z,80.30
2019-02-04T21:50:47.195Z,80.80
2019-02-04T21:53:13.203Z,80.10
2019-02-04T21:55:39.249Z,79.80
2019-02-04T21:58:05.328Z,79.90
2019-02-04T22:00:36.472Z,79.80
2019-02-04T22:03:02.507Z,79.80
2019-02-04T22:05:30.747Z,79.80
2019-02-04T22:07:56.983Z,79.60
2019-02-04T22:10:25.211Z,79.80
2019-02-04T22:12:51.274Z,80.00
2019-02-04T22:15:17.303Z,79.40
2019-02-04T22:17:43.514Z,79.20
2019-02-04T22:20:12.082Z,79.30
2019-02-04T22:22:38.111Z,80.10
2019-02-04T22:25:06.959Z,80.60
2019-02-04T22:27:33.566Z,81.10
2019-02-04T22:30:14.772Z,81.50
2019-02-04T22:32:29.860Z,81.80
2019-02-04T22:34:55.901Z,82.50
2019-02-04T22:37:21.970Z,82.00
2019-02-04T22:39:47.983Z,81.40
2019-02-04T22:42:14.019Z,81.40
2019-02-04T22:44:40.107Z,81.30
2019-02-04T22:47:06.147Z,81.40
2019-02-04T22:49:32.487Z,81.30
2019-02-04T22:51:58.554Z,81.10
2019-02-04T22:54:24.563Z,80.70
2019-02-04T22:56:50.595Z,81.20
2019-02-04T22:59:16.629Z,81.40
2019-02-04T23:01:43.985Z,81.90
2019-02-04T23:04:29.881Z,81.10
2019-02-04T23:06:55.917Z,81.50
2019-02-04T23:09:21.936Z,80.70
2019-02-04T23:11:47.967Z,80.40
2019-02-04T23:14:14.239Z,80.70
2019-02-04T23:16:40.412Z,80.00
2019-02-04T23:19:06.455Z,80.20
2019-02-04T23:21:32.875Z,79.70
2019-02-04T23:23:58.937Z,80.00
2019-02-04T23:26:24.972Z,81.10
2019-02-04T23:28:51.012Z,81.40
2019-02-04T23:31:17.023Z,80.50
2019-02-04T23:33:43.075Z,81.30
2019-02-04T23:36:09.087Z,80.70
2019-02-04T23:38:35.104Z,80.00
2019-02-04T23:41:01.571Z,79.60
2019-02-04T23:43:27.605Z,79.90
2019-02-04T23:45:53.627Z,79.90
2019-02-04T23:48:19.975Z,80.30
2019-02-04T23:50:46.007Z,80.50
2019-02-04T23:53:12.056Z,80.20
2019-02-04T23:55:38.132Z,80.20
2019-02-04T23:58:04.151Z,80.00
